EZY75CE LIBD-EGKK
Flight info
| Callsign | EZY75CE |
|---|---|
| Flight time | N/A |
| Altitude | 36000 |
| Route | PISIP L612 VIE/N0444F340 DCT LANLI DCT RESIA DCT ELMUR DCT RIPUS DCT DITON DCT HOC DCT LUL DCT RLP DCT ROTSI DCT KOTUN DCT NINAL DCT KESAX DCT KUNAV |
| Aircraft | A320/M-SDE3FGHIRWY/LB1 |
Departure
| Time | 2026-04-30 14:14 |
|---|---|
| Airport | Bari Karol Wojtyła International Airport (LIBD) |
Arrival
| Time | N/A |
|---|---|
| Airport | London Gatwick Airport (EGKK) |
| Time | Latitude | Longitude | Altitude | Speed | Heading |
|---|---|---|---|---|---|
| 2026-04-30 13:52 | 41.13526 | 16.76345 | 137 ft | 0 kts | 159° |
| 2026-04-30 14:03 | 41.13527 | 16.76344 | 136 ft | 1 kts | 159° |
| 2026-04-30 14:04 | 41.13550 | 16.76334 | 136 ft | 4 kts | 165° |
| 2026-04-30 14:04 | 41.13576 | 16.76327 | 136 ft | 4 kts | 182° |
| 2026-04-30 14:04 | 41.13599 | 16.76336 | 136 ft | 4 kts | 235° |
| 2026-04-30 14:04 | 41.13602 | 16.76343 | 136 ft | 0 kts | 249° |
| 2026-04-30 14:07 | 41.13594 | 16.76312 | 136 ft | 7 kts | 249° |
| 2026-04-30 14:08 | 41.13552 | 16.76152 | 136 ft | 8 kts | 265° |
| 2026-04-30 14:08 | 41.13586 | 16.76080 | 136 ft | 12 kts | 320° |
| 2026-04-30 14:08 | 41.13614 | 16.75883 | 136 ft | 11 kts | 249° |
| 2026-04-30 14:09 | 41.13582 | 16.75774 | 137 ft | 18 kts | 249° |
| 2026-04-30 14:09 | 41.13535 | 16.75613 | 137 ft | 19 kts | 250° |
| 2026-04-30 14:09 | 41.13451 | 16.75306 | 142 ft | 18 kts | 250° |
| 2026-04-30 14:10 | 41.13407 | 16.75153 | 145 ft | 17 kts | 249° |
| 2026-04-30 14:10 | 41.13370 | 16.75024 | 147 ft | 15 kts | 249° |
| 2026-04-30 14:10 | 41.13328 | 16.74876 | 148 ft | 18 kts | 249° |
| 2026-04-30 14:10 | 41.13285 | 16.74722 | 150 ft | 17 kts | 250° |
| 2026-04-30 14:11 | 41.13247 | 16.74589 | 152 ft | 15 kts | 249° |
| 2026-04-30 14:11 | 41.13213 | 16.74471 | 153 ft | 12 kts | 249° |
| 2026-04-30 14:11 | 41.13188 | 16.74380 | 154 ft | 9 kts | 250° |
| 2026-04-30 14:11 | 41.13165 | 16.74302 | 153 ft | 10 kts | 250° |
| 2026-04-30 14:12 | 41.13177 | 16.74217 | 150 ft | 11 kts | 300° |
| 2026-04-30 14:12 | 41.13232 | 16.74117 | 146 ft | 16 kts | 324° |
| 2026-04-30 14:12 | 41.13305 | 16.74130 | 146 ft | 7 kts | 53° |
| 2026-04-30 14:12 | 41.13316 | 16.74162 | 146 ft | 5 kts | 68° |
| 2026-04-30 14:13 | 41.13317 | 16.74166 | 147 ft | 0 kts | 68° |
| 2026-04-30 14:13 | 41.13380 | 16.74382 | 146 ft | 61 kts | 69° |
| 2026-04-30 14:13 | 41.13608 | 16.75194 | 138 ft | 124 kts | 69° |
| 2026-04-30 14:14 | 41.13971 | 16.76475 | 139 ft | 170 kts | 69° |
| 2026-04-30 14:14 | 41.14349 | 16.77928 | 837 ft | 163 kts | 70° |
| 2026-04-30 14:14 | 41.14731 | 16.79337 | 1549 ft | 166 kts | 62° |
| 2026-04-30 14:14 | 41.15176 | 16.80856 | 1868 ft | 186 kts | 63° |
| 2026-04-30 14:15 | 41.15656 | 16.82535 | 2194 ft | 204 kts | 63° |
| 2026-04-30 14:15 | 41.16177 | 16.84384 | 2517 ft | 228 kts | 65° |
| 2026-04-30 14:15 | 41.16757 | 16.86416 | 3104 ft | 240 kts | 65° |
| 2026-04-30 14:15 | 41.17359 | 16.88516 | 3889 ft | 246 kts | 64° |
| 2026-04-30 14:16 | 41.17992 | 16.90653 | 4693 ft | 250 kts | 59° |
| 2026-04-30 14:16 | 41.19121 | 16.92318 | 5446 ft | 243 kts | 24° |
| 2026-04-30 14:16 | 41.20773 | 16.92748 | 6035 ft | 249 kts | 351° |
| 2026-04-30 14:16 | 41.22487 | 16.92258 | 6772 ft | 254 kts | 344° |
| 2026-04-30 14:17 | 41.24201 | 16.91610 | 7533 ft | 258 kts | 342° |
| 2026-04-30 14:17 | 41.25937 | 16.90916 | 8292 ft | 262 kts | 341° |
| 2026-04-30 14:17 | 41.27700 | 16.90214 | 9089 ft | 266 kts | 341° |
| 2026-04-30 14:17 | 41.29471 | 16.89527 | 9857 ft | 270 kts | 341° |
| 2026-04-30 14:18 | 41.31296 | 16.88834 | 10460 ft | 280 kts | 342° |
| 2026-04-30 14:18 | 41.33245 | 16.88100 | 10676 ft | 303 kts | 342° |
| 2026-04-30 14:18 | 41.37367 | 16.86165 | 11681 ft | 320 kts | 329° |
| 2026-04-30 14:19 | 41.40716 | 16.82277 | 12127 ft | 320 kts | 311° |
| 2026-04-30 14:19 | 41.42189 | 16.80049 | 12178 ft | 322 kts | 311° |
| 2026-04-30 14:19 | 41.43675 | 16.77798 | 12873 ft | 324 kts | 311° |
| 2026-04-30 14:20 | 41.45164 | 16.75541 | 13650 ft | 325 kts | 311° |
| 2026-04-30 14:20 | 41.46662 | 16.73276 | 14315 ft | 327 kts | 311° |
| 2026-04-30 14:20 | 41.49665 | 16.68739 | 15548 ft | 331 kts | 310° |
| 2026-04-30 14:21 | 41.51194 | 16.66422 | 16163 ft | 333 kts | 310° |
| 2026-04-30 14:21 | 41.52732 | 16.64097 | 16776 ft | 335 kts | 310° |
| 2026-04-30 14:21 | 41.55830 | 16.59392 | 18007 ft | 339 kts | 309° |
| 2026-04-30 14:22 | 41.57387 | 16.57013 | 18586 ft | 341 kts | 309° |
| 2026-04-30 14:22 | 41.60532 | 16.52221 | 19628 ft | 344 kts | 309° |
| 2026-04-30 14:22 | 41.62115 | 16.49809 | 20146 ft | 346 kts | 308° |
| 2026-04-30 14:23 | 41.65275 | 16.44977 | 21160 ft | 349 kts | 308° |
| 2026-04-30 14:23 | 41.68485 | 16.40072 | 22154 ft | 352 kts | 308° |
| 2026-04-30 14:24 | 41.71724 | 16.35121 | 23117 ft | 355 kts | 307° |
| 2026-04-30 14:24 | 41.73353 | 16.32622 | 23578 ft | 357 kts | 307° |
| 2026-04-30 14:25 | 41.76616 | 16.27589 | 24381 ft | 360 kts | 307° |
| 2026-04-30 14:25 | 41.79912 | 16.22505 | 25122 ft | 363 kts | 307° |
| 2026-04-30 14:26 | 41.83243 | 16.17379 | 25835 ft | 366 kts | 307° |
| 2026-04-30 14:26 | 41.84915 | 16.14798 | 26191 ft | 367 kts | 307° |
| 2026-04-30 14:26 | 41.88249 | 16.09632 | 26913 ft | 370 kts | 307° |
| 2026-04-30 14:27 | 41.89933 | 16.07017 | 27307 ft | 370 kts | 307° |
| 2026-04-30 14:27 | 41.91625 | 16.04398 | 27672 ft | 372 kts | 308° |
| 2026-04-30 14:27 | 41.93395 | 16.01855 | 28045 ft | 374 kts | 310° |
| 2026-04-30 14:28 | 41.97120 | 15.96933 | 28739 ft | 377 kts | 312° |
| 2026-04-30 14:28 | 41.99016 | 15.94485 | 29066 ft | 379 kts | 311° |
| 2026-04-30 14:28 | 42.00913 | 15.92016 | 29378 ft | 380 kts | 311° |
| 2026-04-30 14:28 | 42.02802 | 15.89524 | 29669 ft | 381 kts | 311° |
| 2026-04-30 14:29 | 42.06566 | 15.84475 | 30261 ft | 383 kts | 310° |
| 2026-04-30 14:29 | 42.09699 | 15.80242 | 30653 ft | 385 kts | 310° |
| 2026-04-30 14:30 | 42.16017 | 15.71713 | 31764 ft | 382 kts | 311° |
| 2026-04-30 14:31 | 42.19130 | 15.67520 | 32344 ft | 380 kts | 311° |
| 2026-04-30 14:31 | 42.23457 | 15.61676 | 33075 ft | 378 kts | 311° |
| 2026-04-30 14:31 | 42.25308 | 15.59163 | 33388 ft | 377 kts | 311° |
| 2026-04-30 14:32 | 42.28395 | 15.54958 | 33908 ft | 376 kts | 311° |
| 2026-04-30 14:32 | 42.30233 | 15.52452 | 34127 ft | 376 kts | 311° |
| 2026-04-30 14:33 | 42.33875 | 15.47499 | 34175 ft | 368 kts | 311° |
| 2026-04-30 14:33 | 42.39242 | 15.40196 | 34192 ft | 366 kts | 311° |
| 2026-04-30 14:34 | 42.42828 | 15.35299 | 34188 ft | 366 kts | 311° |
| 2026-04-30 14:34 | 42.46410 | 15.30388 | 34188 ft | 366 kts | 311° |
| 2026-04-30 14:35 | 42.51779 | 15.23022 | 34178 ft | 366 kts | 311° |
| 2026-04-30 14:36 | 42.55351 | 15.18109 | 34186 ft | 366 kts | 311° |
| 2026-04-30 14:36 | 42.58926 | 15.13190 | 34188 ft | 366 kts | 311° |
| 2026-04-30 14:37 | 42.62497 | 15.08273 | 34192 ft | 365 kts | 311° |
| 2026-04-30 14:37 | 42.66069 | 15.03341 | 34197 ft | 367 kts | 311° |
| 2026-04-30 14:37 | 48.48809 | 3.87404 | 33783 ft | 370 kts | 4° |
| 2026-04-30 14:38 | 48.51384 | 3.87823 | 33907 ft | 372 kts | 357° |
| 2026-04-30 14:38 | 48.53949 | 3.87783 | 34109 ft | 372 kts | 359° |
| 2026-04-30 14:38 | 48.56567 | 3.87703 | 34156 ft | 379 kts | 359° |
| 2026-04-30 14:39 | 48.61926 | 3.87514 | 34165 ft | 396 kts | 0° |
| 2026-04-30 14:39 | 48.67551 | 3.87180 | 34173 ft | 414 kts | 355° |
| 2026-04-30 14:40 | 48.73130 | 3.84527 | 34171 ft | 431 kts | 333° |
| 2026-04-30 14:40 | 48.75664 | 3.82071 | 34169 ft | 436 kts | 323° |
| 2026-04-30 14:40 | 48.80089 | 3.75762 | 34167 ft | 439 kts | 317° |
| 2026-04-30 14:41 | 48.84451 | 3.69267 | 34159 ft | 439 kts | 317° |
| 2026-04-30 14:41 | 48.88813 | 3.62742 | 34151 ft | 440 kts | 317° |
| 2026-04-30 14:42 | 48.93181 | 3.56201 | 34144 ft | 441 kts | 316° |
| 2026-04-30 14:42 | 48.97550 | 3.49640 | 34137 ft | 442 kts | 316° |
| 2026-04-30 14:43 | 49.01923 | 3.43035 | 34143 ft | 442 kts | 316° |
| 2026-04-30 14:43 | 49.06264 | 3.36464 | 34147 ft | 443 kts | 316° |
| 2026-04-30 14:44 | 49.10650 | 3.29833 | 34131 ft | 445 kts | 316° |
| 2026-04-30 14:44 | 49.15040 | 3.23178 | 34142 ft | 446 kts | 317° |
| 2026-04-30 14:45 | 49.19441 | 3.16487 | 34135 ft | 447 kts | 316° |
| 2026-04-30 14:45 | 49.23849 | 3.09760 | 34149 ft | 447 kts | 316° |
| 2026-04-30 14:46 | 49.28253 | 3.03010 | 34141 ft | 448 kts | 316° |
| 2026-04-30 14:46 | 49.32660 | 2.96244 | 34151 ft | 448 kts | 316° |
| 2026-04-30 14:47 | 49.37065 | 2.89468 | 34155 ft | 448 kts | 316° |
| 2026-04-30 14:47 | 49.41436 | 2.82727 | 34155 ft | 449 kts | 316° |
| 2026-04-30 14:48 | 49.45838 | 2.75921 | 34148 ft | 449 kts | 316° |
| 2026-04-30 14:48 | 49.50242 | 2.69090 | 34145 ft | 450 kts | 316° |
| 2026-04-30 14:49 | 49.54649 | 2.62232 | 34145 ft | 451 kts | 315° |
| 2026-04-30 14:49 | 49.59053 | 2.55351 | 34155 ft | 451 kts | 315° |
| 2026-04-30 14:50 | 49.65386 | 2.44606 | 34149 ft | 452 kts | 310° |
| 2026-04-30 14:51 | 49.71374 | 2.33359 | 34149 ft | 452 kts | 310° |
| 2026-04-30 14:52 | 49.77425 | 2.22246 | 34149 ft | 453 kts | 310° |
| 2026-04-30 14:52 | 49.83540 | 2.11071 | 34142 ft | 454 kts | 310° |
| 2026-04-30 14:53 | 49.89639 | 1.99833 | 34151 ft | 454 kts | 310° |
| 2026-04-30 14:54 | 49.93685 | 1.92348 | 33252 ft | 450 kts | 310° |
| 2026-04-30 14:54 | 49.97674 | 1.84946 | 32188 ft | 444 kts | 310° |
| 2026-04-30 14:55 | 50.01613 | 1.77615 | 31122 ft | 440 kts | 310° |
| 2026-04-30 14:55 | 50.03565 | 1.73974 | 30612 ft | 437 kts | 310° |
| 2026-04-30 14:55 | 50.07523 | 1.66863 | 29586 ft | 430 kts | 317° |
| 2026-04-30 14:56 | 50.11945 | 1.60846 | 28683 ft | 420 kts | 320° |
| 2026-04-30 14:56 | 50.16304 | 1.54926 | 27814 ft | 411 kts | 320° |
| 2026-04-30 14:57 | 50.18446 | 1.52007 | 27369 ft | 407 kts | 320° |
| 2026-04-30 14:57 | 50.22670 | 1.46236 | 26517 ft | 400 kts | 320° |
| 2026-04-30 14:58 | 50.26828 | 1.40571 | 25643 ft | 394 kts | 320° |
| 2026-04-30 14:58 | 50.28890 | 1.37748 | 25215 ft | 392 kts | 319° |
| 2026-04-30 14:58 | 50.32980 | 1.32124 | 24283 ft | 390 kts | 320° |
| 2026-04-30 14:59 | 50.37056 | 1.26520 | 23299 ft | 389 kts | 320° |
| 2026-04-30 15:00 | 50.43053 | 1.18272 | 21938 ft | 382 kts | 319° |
| 2026-04-30 15:00 | 50.47020 | 1.12772 | 21046 ft | 379 kts | 319° |
| 2026-04-30 15:01 | 50.50950 | 1.07313 | 20176 ft | 376 kts | 318° |
| 2026-04-30 15:01 | 50.52183 | 1.05407 | 19886 ft | 374 kts | 313° |
| 2026-04-30 15:01 | 50.56300 | 0.98476 | 18882 ft | 372 kts | 313° |
| 2026-04-30 15:02 | 50.58064 | 0.95510 | 18459 ft | 371 kts | 312° |
| 2026-04-30 15:02 | 50.59823 | 0.92546 | 17982 ft | 369 kts | 312° |
| 2026-04-30 15:03 | 50.65013 | 0.83759 | 16894 ft | 357 kts | 312° |
| 2026-04-30 15:03 | 50.68359 | 0.77988 | 16064 ft | 355 kts | 310° |
| 2026-04-30 15:04 | 50.71419 | 0.72081 | 15627 ft | 343 kts | 307° |
| 2026-04-30 15:04 | 50.75811 | 0.63258 | 14632 ft | 342 kts | 308° |
| 2026-04-30 15:05 | 50.80336 | 0.54332 | 13141 ft | 350 kts | 308° |
| 2026-04-30 15:06 | 50.83402 | 0.48296 | 12125 ft | 353 kts | 308° |
| 2026-04-30 15:06 | 50.85881 | 0.41668 | 11157 ft | 353 kts | 296° |
| 2026-04-30 15:07 | 50.88195 | 0.34807 | 10191 ft | 353 kts | 296° |
| 2026-04-30 15:07 | 50.90501 | 0.27946 | 9161 ft | 352 kts | 296° |
| 2026-04-30 15:08 | 50.92704 | 0.21064 | 8151 ft | 348 kts | 291° |
| 2026-04-30 15:08 | 50.95602 | 0.10593 | 6684 ft | 343 kts | 291° |
| 2026-04-30 15:09 | 50.97465 | 0.03825 | 6241 ft | 321 kts | 291° |
| 2026-04-30 15:09 | 50.99192 | -0.02408 | 5988 ft | 297 kts | 291° |
| 2026-04-30 15:10 | 51.00835 | -0.08354 | 5573 ft | 292 kts | 291° |
| 2026-04-30 15:11 | 51.03975 | -0.20105 | 4184 ft | 280 kts | 291° |
| 2026-04-30 15:11 | 51.05404 | -0.25602 | 3923 ft | 262 kts | 291° |
| 2026-04-30 15:12 | 51.07452 | -0.33444 | 3158 ft | 255 kts | 291° |
| 2026-04-30 15:13 | 51.08759 | -0.38652 | 3013 ft | 254 kts | 291° |
| 2026-04-30 15:14 | 51.12199 | -0.48076 | 3007 ft | 246 kts | 343° |
| 2026-04-30 15:14 | 51.15994 | -0.45295 | 3008 ft | 209 kts | 83° |
| 2026-04-30 15:16 | 51.10755 | -0.43587 | 3011 ft | 234 kts | 216° |
| 2026-04-30 15:17 | 51.06424 | -0.49795 | 3007 ft | 195 kts | 216° |
| 2026-04-30 15:18 | 51.08715 | -0.56165 | 2993 ft | 190 kts | 36° |
| 2026-04-30 15:19 | 51.10336 | -0.51208 | 3006 ft | 171 kts | 82° |